createdAt,value
2018-08-22T00:01:20.251Z,20.92
2018-08-22T00:03:47.810Z,21.07
2018-08-22T00:06:15.350Z,21.02
2018-08-22T00:08:44.125Z,21.00
2018-08-22T00:11:12.382Z,21.06
2018-08-22T00:13:40.701Z,21.05
2018-08-22T00:16:08.243Z,21.18
2018-08-22T00:18:35.781Z,21.12
2018-08-22T00:21:03.576Z,21.11
2018-08-22T00:23:31.102Z,21.09
2018-08-22T00:25:58.602Z,20.94
2018-08-22T00:28:26.234Z,20.89
2018-08-22T00:30:53.750Z,20.89
2018-08-22T00:33:21.282Z,20.91
2018-08-22T00:35:48.872Z,20.91
2018-08-22T00:38:16.546Z,20.88
2018-08-22T00:40:44.107Z,20.79
2018-08-22T00:43:12.085Z,20.77
2018-08-22T00:45:39.979Z,20.70
2018-08-22T00:48:07.590Z,20.63
2018-08-22T00:50:35.093Z,20.67
2018-08-22T00:53:02.894Z,20.63
2018-08-22T00:55:30.450Z,20.58
2018-08-22T00:57:57.990Z,20.50
2018-08-22T01:00:25.737Z,20.46
2018-08-22T01:02:53.266Z,20.43
2018-08-22T01:05:20.804Z,20.40
2018-08-22T01:07:48.361Z,20.36
2018-08-22T01:10:15.883Z,20.36
2018-08-22T01:12:43.390Z,20.39
2018-08-22T01:15:10.894Z,20.32
2018-08-22T01:17:38.425Z,20.23
2018-08-22T01:20:06.182Z,20.15
2018-08-22T01:22:34.079Z,20.16
2018-08-22T01:25:01.610Z,20.18
2018-08-22T01:27:29.127Z,20.14
2018-08-22T01:29:56.999Z,20.09
2018-08-22T01:32:24.493Z,20.12
2018-08-22T01:34:52.254Z,20.08
2018-08-22T01:37:19.796Z,20.08
2018-08-22T01:39:47.890Z,20.07
2018-08-22T01:42:15.678Z,20.04
2018-08-22T01:44:43.427Z,20.04
2018-08-22T01:47:10.961Z,20.11
2018-08-22T01:49:38.470Z,20.14
2018-08-22T01:52:06.003Z,20.14
2018-08-22T01:54:33.575Z,20.20
2018-08-22T01:57:01.402Z,20.13
2018-08-22T01:59:28.914Z,20.09
2018-08-22T02:01:56.417Z,20.04
2018-08-22T02:04:23.977Z,20.03
2018-08-22T02:06:51.535Z,20.11
2018-08-22T02:09:19.030Z,20.08
2018-08-22T02:11:46.581Z,20.08
2018-08-22T02:14:14.090Z,20.21
2018-08-22T02:16:41.614Z,20.19
2018-08-22T02:19:09.868Z,20.27
2018-08-22T02:21:37.913Z,20.55
2018-08-22T02:24:05.419Z,20.65
2018-08-22T02:26:33.505Z,20.65
2018-08-22T02:29:01.134Z,20.56
2018-08-22T02:31:28.657Z,20.69
2018-08-22T02:33:56.195Z,20.72
2018-08-22T02:36:23.738Z,20.56
2018-08-22T02:38:51.242Z,20.39
2018-08-22T02:41:18.815Z,20.12
2018-08-22T02:43:46.350Z,19.99
2018-08-22T02:46:13.928Z,19.91
2018-08-22T02:48:47.074Z,19.82
2018-08-22T02:51:14.606Z,19.80
2018-08-22T02:53:42.179Z,19.93
2018-08-22T02:56:09.750Z,20.26
2018-08-22T02:58:37.578Z,20.27
2018-08-22T03:01:05.221Z,20.04
2018-08-22T03:03:32.853Z,19.83
2018-08-22T03:06:01.451Z,19.82
2018-08-22T03:08:28.982Z,19.71
2018-08-22T03:10:56.517Z,19.66
2018-08-22T03:13:24.061Z,19.61
2018-08-22T03:15:51.570Z,19.61
2018-08-22T03:18:19.146Z,19.58
2018-08-22T03:20:46.715Z,19.59
2018-08-22T03:23:14.250Z,19.56
2018-08-22T03:25:41.806Z,19.63
2018-08-22T03:28:09.500Z,19.54
2018-08-22T03:30:37.027Z,19.46
2018-08-22T03:33:04.633Z,19.49
2018-08-22T03:35:32.378Z,19.41
2018-08-22T03:37:59.889Z,19.46
2018-08-22T03:40:27.410Z,19.48
2018-08-22T03:42:54.923Z,19.47
2018-08-22T03:45:22.650Z,19.34
2018-08-22T03:47:50.194Z,19.30
2018-08-22T03:50:17.713Z,19.21
2018-08-22T03:52:45.235Z,19.11
2018-08-22T03:55:12.763Z,19.09
2018-08-22T03:57:40.646Z,18.98
2018-08-22T04:00:08.491Z,18.99
2018-08-22T04:02:36.022Z,19.06
2018-08-22T04:05:03.823Z,18.99
2018-08-22T04:07:31.363Z,18.98
2018-08-22T04:09:58.877Z,18.93
2018-08-22T04:12:26.446Z,18.95
2018-08-22T04:14:54.010Z,19.00
2018-08-22T04:17:26.430Z,19.01
2018-08-22T04:19:53.944Z,19.04
2018-08-22T04:22:21.458Z,19.09
2018-08-22T04:24:48.998Z,19.12
2018-08-22T04:27:16.531Z,19.02
2018-08-22T04:29:44.066Z,18.98
2018-08-22T04:32:11.591Z,19.06
2018-08-22T04:34:39.116Z,19.01
2018-08-22T04:37:06.668Z,18.99
2018-08-22T04:39:34.189Z,19.03
2018-08-22T04:42:01.727Z,19.00
2018-08-22T04:44:29.259Z,19.06
2018-08-22T04:46:56.767Z,19.09
2018-08-22T04:49:24.339Z,19.03
2018-08-22T04:51:51.850Z,19.10
2018-08-22T04:54:19.391Z,19.01
2018-08-22T04:56:47.226Z,19.19
2018-08-22T04:59:14.739Z,19.23
2018-08-22T05:01:42.487Z,19.31
2018-08-22T05:04:10.038Z,19.45
2018-08-22T05:06:37.562Z,19.57
2018-08-22T05:09:05.879Z,19.70
2018-08-22T05:11:33.418Z,19.81
2018-08-22T05:14:00.928Z,19.84
2018-08-22T05:16:28.439Z,19.84
2018-08-22T05:18:55.972Z,19.99
2018-08-22T05:21:23.499Z,20.13
2018-08-22T05:23:51.063Z,20.28
2018-08-22T05:26:18.659Z,20.40
2018-08-22T05:28:46.275Z,20.52
2018-08-22T05:31:13.843Z,20.46
2018-08-22T05:33:41.389Z,20.70
2018-08-22T05:36:08.890Z,20.75
2018-08-22T05:38:36.437Z,20.96
2018-08-22T05:41:04.009Z,21.10
2018-08-22T05:43:31.566Z,21.26
2018-08-22T05:45:59.101Z,21.46
2018-08-22T05:48:26.632Z,21.63
2018-08-22T05:50:54.486Z,21.75
2018-08-22T05:53:22.002Z,21.98
2018-08-22T05:55:49.870Z,22.13
2018-08-22T05:58:17.886Z,22.33
2018-08-22T06:00:45.462Z,22.47
2018-08-22T06:03:13.324Z,22.61
2018-08-22T06:05:40.815Z,22.81
2018-08-22T06:08:08.326Z,22.91
2018-08-22T06:10:35.878Z,22.76
2018-08-22T06:13:03.423Z,22.89
2018-08-22T06:15:30.993Z,23.21
2018-08-22T06:17:58.595Z,23.46
2018-08-22T06:20:26.510Z,23.73
2018-08-22T06:22:54.058Z,23.89
2018-08-22T06:25:21.590Z,24.10
2018-08-22T06:27:49.119Z,24.19
2018-08-22T06:30:16.715Z,24.05
2018-08-22T06:32:44.276Z,24.13
2018-08-22T06:35:12.082Z,24.44
2018-08-22T06:37:39.650Z,24.69
2018-08-22T06:40:07.238Z,24.98
2018-08-22T06:42:34.876Z,25.07
2018-08-22T06:45:02.449Z,25.31
2018-08-22T06:47:29.998Z,25.55
2018-08-22T06:49:57.519Z,25.67
2018-08-22T06:52:25.154Z,25.88
2018-08-22T06:54:52.710Z,25.83
2018-08-22T06:57:20.300Z,25.91
2018-08-22T06:59:48.152Z,26.37
2018-08-22T07:02:15.715Z,26.29
2018-08-22T07:04:43.250Z,26.33
2018-08-22T07:07:11.087Z,26.75
2018-08-22T07:09:38.627Z,27.15
2018-08-22T07:12:06.187Z,27.51
2018-08-22T07:14:33.697Z,27.62
2018-08-22T07:17:01.327Z,28.20
2018-08-22T07:19:29.170Z,28.76
2018-08-22T07:21:56.694Z,29.03
2018-08-22T07:24:24.220Z,29.05
2018-08-22T07:26:51.799Z,28.99
2018-08-22T07:29:19.635Z,29.20
2018-08-22T07:31:47.175Z,29.52
2018-08-22T07:34:14.733Z,30.14
2018-08-22T07:36:42.278Z,29.81
2018-08-22T07:39:11.857Z,30.01
2018-08-22T07:41:39.713Z,30.32
2018-08-22T07:44:07.782Z,30.64
2018-08-22T07:46:35.335Z,31.03
2018-08-22T07:49:02.893Z,31.09
2018-08-22T07:51:30.439Z,31.88
2018-08-22T07:53:57.985Z,32.50
2018-08-22T07:56:25.662Z,33.44
2018-08-22T07:58:58.778Z,34.19
2018-08-22T08:01:26.314Z,34.68
2018-08-22T08:03:53.842Z,35.02
2018-08-22T08:06:21.406Z,35.06
2018-08-22T08:08:49.648Z,35.38
2018-08-22T08:11:17.235Z,35.94
2018-08-22T08:13:44.764Z,35.29
2018-08-22T08:16:12.317Z,34.79
2018-08-22T08:18:39.898Z,35.80
2018-08-22T08:21:07.505Z,35.43
2018-08-22T08:23:35.031Z,34.94
2018-08-22T08:26:02.738Z,35.83
2018-08-22T08:28:31.266Z,35.12
2018-08-22T08:30:58.826Z,35.10
2018-08-22T08:33:26.461Z,34.99
2018-08-22T08:35:54.024Z,35.69
2018-08-22T08:38:21.637Z,36.68
2018-08-22T08:40:49.183Z,37.62
2018-08-22T08:43:16.754Z,38.18
2018-08-22T08:45:44.311Z,38.80
2018-08-22T08:48:11.838Z,39.06
2018-08-22T08:50:39.431Z,39.44
2018-08-22T08:53:06.986Z,39.89
2018-08-22T08:55:34.948Z,40.24
2018-08-22T08:58:02.664Z,40.23
2018-08-22T09:00:30.178Z,39.81
2018-08-22T09:02:58.062Z,39.41
2018-08-22T09:05:25.612Z,39.64
2018-08-22T09:07:53.122Z,40.22
2018-08-22T09:10:20.901Z,40.81
2018-08-22T09:12:48.413Z,41.02
2018-08-22T09:15:15.931Z,41.28
2018-08-22T09:17:43.492Z,41.24
2018-08-22T09:20:11.026Z,41.48
2018-08-22T09:22:39.388Z,41.13
2018-08-22T09:25:08.786Z,41.20
2018-08-22T09:27:36.310Z,40.92
2018-08-22T09:30:03.870Z,41.23
2018-08-22T09:32:31.467Z,41.13
2018-08-22T09:34:59.357Z,41.16
2018-08-22T09:37:26.903Z,40.96
2018-08-22T09:39:54.471Z,40.74
2018-08-22T09:42:21.986Z,41.52
2018-08-22T09:44:49.576Z,41.97
2018-08-22T09:47:17.160Z,42.14
2018-08-22T09:49:44.682Z,41.84
2018-08-22T09:52:12.254Z,42.18
2018-08-22T09:54:50.118Z,42.41
2018-08-22T09:57:17.684Z,42.03
2018-08-22T09:59:45.450Z,42.86
2018-08-22T10:02:13.015Z,42.96
2018-08-22T10:04:40.537Z,43.37
2018-08-22T10:07:08.148Z,42.66
2018-08-22T10:09:35.661Z,42.33
2018-08-22T10:12:03.316Z,42.38
2018-08-22T10:14:30.843Z,41.74
2018-08-22T10:16:58.419Z,41.13
2018-08-22T10:19:27.211Z,40.88
2018-08-22T10:21:54.739Z,40.50
2018-08-22T10:24:22.286Z,40.51
2018-08-22T10:26:49.855Z,39.59
2018-08-22T10:29:17.412Z,39.07
2018-08-22T10:31:45.004Z,37.97
2018-08-22T10:34:12.513Z,38.32
2018-08-22T10:36:40.173Z,39.03
2018-08-22T10:39:08.276Z,39.68
2018-08-22T10:41:35.796Z,38.59
2018-08-22T10:44:03.338Z,37.34
2018-08-22T10:46:30.842Z,38.43
2018-08-22T10:48:58.390Z,39.11
2018-08-22T10:51:25.980Z,39.61
2018-08-22T10:53:53.564Z,39.23
2018-08-22T10:56:21.051Z,38.87
2018-08-22T10:58:48.890Z,38.71
2018-08-22T11:01:16.535Z,38.40
2018-08-22T11:03:44.064Z,38.67
2018-08-22T11:06:11.601Z,37.95
2018-08-22T11:08:39.122Z,38.47
2018-08-22T11:11:06.695Z,38.88
2018-08-22T11:13:34.617Z,38.72
2018-08-22T11:16:02.288Z,39.01
2018-08-22T11:18:29.805Z,38.74
2018-08-22T11:21:03.192Z,37.87
2018-08-22T11:23:36.482Z,37.64
2018-08-22T11:26:10.336Z,36.43
2018-08-22T11:28:44.403Z,36.38
2018-08-22T11:31:17.568Z,36.51
2018-08-22T11:33:50.867Z,36.97
2018-08-22T11:36:17.878Z,36.80
2018-08-22T11:38:45.411Z,36.37
2018-08-22T11:41:12.960Z,35.83
2018-08-22T11:43:40.673Z,36.03
2018-08-22T11:46:08.213Z,35.94
2018-08-22T11:48:35.749Z,35.72
2018-08-22T11:51:03.282Z,35.23
2018-08-22T11:53:30.863Z,34.86
2018-08-22T11:55:58.452Z,34.78
2018-08-22T11:58:25.981Z,34.51
2018-08-22T12:00:53.558Z,34.78
2018-08-22T12:03:21.191Z,35.09
2018-08-22T12:05:49.024Z,34.94
2018-08-22T12:08:16.569Z,34.82
2018-08-22T12:10:44.067Z,34.14
2018-08-22T12:13:11.631Z,34.13
2018-08-22T12:15:39.183Z,33.84
2018-08-22T12:18:06.734Z,33.99
2018-08-22T12:20:34.271Z,34.12
2018-08-22T12:23:01.839Z,34.18
2018-08-22T12:25:29.374Z,34.16
2018-08-22T12:27:56.956Z,34.22
2018-08-22T12:30:24.514Z,34.08
2018-08-22T12:32:52.039Z,34.14
2018-08-22T12:35:19.645Z,34.12
2018-08-22T12:37:47.298Z,33.84
2018-08-22T12:40:14.766Z,33.59
2018-08-22T12:42:42.330Z,32.89
2018-08-22T12:45:09.870Z,32.62
2018-08-22T12:47:37.467Z,31.51
2018-08-22T12:50:05.033Z,30.78
2018-08-22T12:52:32.573Z,31.12
2018-08-22T12:55:00.114Z,30.07
2018-08-22T12:57:27.623Z,29.47
2018-08-22T12:59:55.160Z,28.38
2018-08-22T13:02:22.702Z,27.69
2018-08-22T13:04:50.258Z,27.16
2018-08-22T13:07:17.777Z,27.46
2018-08-22T13:09:45.283Z,27.75
2018-08-22T13:12:12.829Z,28.20
2018-08-22T13:14:40.358Z,28.21
2018-08-22T13:17:07.987Z,27.38
2018-08-22T13:19:35.507Z,27.21
2018-08-22T13:22:03.075Z,27.09
2018-08-22T13:24:30.640Z,27.04
2018-08-22T13:26:58.146Z,26.81
2018-08-22T13:29:25.941Z,26.85
2018-08-22T13:31:53.455Z,27.02
2018-08-22T13:34:21.057Z,27.26
2018-08-22T13:36:48.641Z,27.45
2018-08-22T13:39:16.201Z,27.58
2018-08-22T13:41:43.755Z,27.80
2018-08-22T13:44:11.483Z,27.89
2018-08-22T13:46:39.335Z,28.15
2018-08-22T13:49:06.902Z,28.52
2018-08-22T13:51:34.435Z,28.66
2018-08-22T13:54:02.003Z,28.50
2018-08-22T13:56:29.810Z,28.48
2018-08-22T13:58:57.302Z,28.31
2018-08-22T14:01:24.923Z,28.33
2018-08-22T14:03:52.444Z,28.22
2018-08-22T14:06:20.019Z,28.07
2018-08-22T14:08:47.542Z,28.22
2018-08-22T14:11:15.072Z,28.18
2018-08-22T14:13:42.942Z,28.48
2018-08-22T14:16:10.565Z,28.54
2018-08-22T14:18:38.050Z,28.62
2018-08-22T14:21:05.630Z,28.71
2018-08-22T14:23:33.187Z,28.72
2018-08-22T14:26:00.752Z,28.82
2018-08-22T14:28:28.291Z,28.88
2018-08-22T14:30:55.835Z,29.03
2018-08-22T14:33:23.377Z,29.10
2018-08-22T14:35:50.924Z,29.05
2018-08-22T14:38:18.455Z,29.21
2018-08-22T14:40:46.018Z,29.29
2018-08-22T14:43:13.550Z,29.32
2018-08-22T14:45:41.106Z,29.29
2018-08-22T14:48:08.668Z,29.26
2018-08-22T14:50:36.225Z,29.27
2018-08-22T14:53:03.826Z,29.52
2018-08-22T14:55:31.425Z,29.58
2018-08-22T14:57:58.930Z,29.35
2018-08-22T15:00:26.620Z,29.53
2018-08-22T15:02:54.368Z,29.43
2018-08-22T15:05:21.751Z,29.23
2018-08-22T15:07:49.312Z,29.29
2018-08-22T15:10:17.830Z,29.25
2018-08-22T15:12:45.843Z,29.20
2018-08-22T15:15:13.391Z,29.24
2018-08-22T15:17:40.998Z,29.04
2018-08-22T15:20:08.583Z,29.13
2018-08-22T15:22:36.202Z,28.95
2018-08-22T15:25:04.070Z,28.95
2018-08-22T15:27:31.724Z,28.87
2018-08-22T15:29:59.294Z,28.93
2018-08-22T15:32:26.810Z,28.87
2018-08-22T15:34:55.475Z,28.84
2018-08-22T15:37:23.859Z,28.91
2018-08-22T15:39:51.413Z,29.00
2018-08-22T15:42:19.042Z,28.93
2018-08-22T15:44:46.748Z,28.95
2018-08-22T15:47:14.314Z,28.92
2018-08-22T15:49:42.134Z,28.82
2018-08-22T15:52:09.702Z,28.92
2018-08-22T15:54:37.234Z,28.93
2018-08-22T15:57:04.902Z,28.80
2018-08-22T15:59:32.466Z,28.91
2018-08-22T16:02:00.022Z,28.91
2018-08-22T16:04:27.558Z,28.91
2018-08-22T16:07:03.618Z,28.77
2018-08-22T16:09:32.179Z,28.74
2018-08-22T16:11:59.994Z,28.68
2018-08-22T16:14:28.014Z,28.64
2018-08-22T16:16:55.709Z,28.68
2018-08-22T16:19:23.320Z,28.63
2018-08-22T16:21:50.862Z,28.64
2018-08-22T16:24:18.906Z,28.69
2018-08-22T16:26:46.404Z,28.62
2018-08-22T16:29:14.270Z,28.64
2018-08-22T16:31:45.689Z,28.61
2018-08-22T16:34:13.987Z,28.59
2018-08-22T16:36:41.550Z,28.62
2018-08-22T16:39:09.994Z,28.60
2018-08-22T16:41:37.775Z,28.58
2018-08-22T16:44:05.403Z,28.63
2018-08-22T16:46:32.947Z,28.54
2018-08-22T16:49:00.477Z,28.51
2018-08-22T16:51:28.062Z,28.49
2018-08-22T16:54:01.334Z,28.58
2018-08-22T16:56:30.118Z,28.46
2018-08-22T16:59:03.394Z,28.48
2018-08-22T17:01:30.955Z,28.55
2018-08-22T17:03:58.508Z,28.21
2018-08-22T17:06:26.223Z,28.11
2018-08-22T17:08:54.211Z,28.11
2018-08-22T17:11:21.796Z,28.03
2018-08-22T17:13:50.575Z,28.02
2018-08-22T17:16:18.291Z,27.92
2018-08-22T17:18:45.843Z,27.91
2018-08-22T17:21:13.403Z,27.94
2018-08-22T17:23:41.320Z,27.92
2018-08-22T17:26:13.186Z,27.82
2018-08-22T17:28:42.206Z,27.82
2018-08-22T17:31:10.553Z,27.82
2018-08-22T17:33:49.544Z,27.77
2018-08-22T17:36:17.086Z,27.69
2018-08-22T17:38:52.098Z,27.53
2018-08-22T17:41:20.359Z,27.50
2018-08-22T17:43:54.283Z,27.47
2018-08-22T17:46:22.762Z,27.44
2018-08-22T17:48:50.307Z,27.37
2018-08-22T17:51:17.864Z,27.31
2018-08-22T17:53:45.418Z,27.24
2018-08-22T17:56:12.966Z,27.28
2018-08-22T17:58:40.863Z,27.15
2018-08-22T18:01:08.411Z,27.15
2018-08-22T18:03:35.963Z,27.04
2018-08-22T18:06:03.539Z,26.94
2018-08-22T18:08:31.560Z,26.84
2018-08-22T18:10:59.117Z,26.77
2018-08-22T18:13:26.668Z,26.73
2018-08-22T18:15:54.251Z,26.68
2018-08-22T18:18:21.846Z,26.70
2018-08-22T18:20:49.990Z,26.61
2018-08-22T18:23:18.106Z,26.49
2018-08-22T18:25:55.187Z,26.54
2018-08-22T18:28:23.364Z,26.46
2018-08-22T18:30:50.879Z,26.29
2018-08-22T18:33:18.477Z,26.46
2018-08-22T18:35:46.448Z,26.37
2018-08-22T18:38:14.141Z,26.26
2018-08-22T18:40:42.672Z,26.31
2018-08-22T18:43:10.217Z,26.09
2018-08-22T18:45:43.470Z,26.09
2018-08-22T18:48:11.034Z,26.31
2018-08-22T18:50:38.614Z,26.12
2018-08-22T18:53:06.215Z,26.04
2018-08-22T18:55:34.566Z,25.72
2018-08-22T18:58:03.606Z,25.64
2018-08-22T19:00:33.671Z,25.43
2018-08-22T19:03:01.209Z,25.32
2018-08-22T19:05:29.952Z,25.21
2018-08-22T19:07:59.927Z,25.14
2018-08-22T19:10:30.096Z,24.91
2018-08-22T19:13:01.289Z,24.87
2018-08-22T19:15:28.865Z,25.08
2018-08-22T19:17:56.462Z,24.81
2018-08-22T19:20:24.039Z,24.68
2018-08-22T19:22:51.610Z,24.45
2018-08-22T19:25:19.345Z,24.37
2018-08-22T19:27:46.882Z,24.28
2018-08-22T19:30:14.462Z,24.21
2018-08-22T19:32:42.205Z,24.19
2018-08-22T19:35:09.771Z,24.03
2018-08-22T19:37:37.331Z,24.10
2018-08-22T19:40:06.931Z,24.06
2018-08-22T19:42:35.623Z,23.94
2018-08-22T19:45:05.207Z,23.80
2018-08-22T19:47:32.954Z,23.73
2018-08-22T19:50:00.958Z,23.65
2018-08-22T19:52:29.182Z,23.54
2018-08-22T19:54:56.731Z,23.44
2018-08-22T19:57:40.243Z,23.40
2018-08-22T20:00:08.766Z,23.51
2018-08-22T20:02:37.127Z,23.54
2018-08-22T20:05:05.267Z,23.63
2018-08-22T20:07:32.954Z,23.72
2018-08-22T20:10:00.565Z,23.74
2018-08-22T20:12:33.811Z,23.61
2018-08-22T20:15:01.412Z,23.55
2018-08-22T20:17:29.470Z,23.59
2018-08-22T20:19:57.132Z,23.76
2018-08-22T20:22:30.439Z,23.76
2018-08-22T20:25:00.362Z,23.78
2018-08-22T20:27:27.915Z,23.76
2018-08-22T20:30:02.850Z,23.77
2018-08-22T20:32:30.896Z,23.72
2018-08-22T20:34:59.703Z,23.76
2018-08-22T20:37:27.298Z,23.83
2018-08-22T20:40:00.627Z,23.71
2018-08-22T20:42:29.708Z,23.69
2018-08-22T20:45:08.700Z,23.49
2018-08-22T20:47:36.483Z,23.47
2018-08-22T20:50:04.025Z,23.45
2018-08-22T20:52:31.582Z,23.30
2018-08-22T20:55:04.713Z,23.16
2018-08-22T20:57:32.301Z,23.24
2018-08-22T21:00:00.197Z,23.30
2018-08-22T21:02:28.020Z,23.27
2018-08-22T21:04:55.609Z,23.20
2018-08-22T21:07:28.371Z,23.21
2018-08-22T21:09:55.942Z,23.13
2018-08-22T21:12:23.576Z,23.08
2018-08-22T21:14:51.217Z,23.04
2018-08-22T21:17:18.781Z,22.92
2018-08-22T21:19:46.495Z,22.76
2018-08-22T21:22:21.357Z,22.64
2018-08-22T21:24:48.940Z,22.72
2018-08-22T21:27:16.570Z,22.68
2018-08-22T21:29:44.143Z,22.71
2018-08-22T21:32:11.842Z,22.58
2018-08-22T21:34:39.388Z,22.42
2018-08-22T21:37:12.515Z,22.36
2018-08-22T21:39:40.094Z,22.39
2018-08-22T21:42:07.670Z,22.39
2018-08-22T21:44:35.198Z,22.28
2018-08-22T21:47:08.835Z,22.24
2018-08-22T21:49:36.379Z,22.16
2018-08-22T21:52:04.207Z,22.13
2018-08-22T21:54:31.735Z,22.14
2018-08-22T21:56:59.258Z,22.17
2018-08-22T21:59:26.952Z,22.15
2018-08-22T22:02:00.268Z,21.92
2018-08-22T22:04:33.845Z,21.94
2018-08-22T22:07:02.486Z,22.06
2018-08-22T22:09:30.135Z,21.90
2018-08-22T22:11:59.426Z,21.80
2018-08-22T22:14:30.353Z,21.56
2018-08-22T22:16:58.714Z,21.40
2018-08-22T22:19:27.606Z,21.48
2018-08-22T22:21:55.279Z,21.55
2018-08-22T22:24:22.876Z,21.35
2018-08-22T22:26:50.402Z,21.48
2018-08-22T22:29:17.946Z,21.48
2018-08-22T22:31:45.518Z,21.58
2018-08-22T22:34:13.097Z,21.43
2018-08-22T22:36:40.712Z,21.35
2018-08-22T22:39:45.153Z,21.27
2018-08-22T22:42:21.230Z,21.17
2018-08-22T22:44:51.173Z,21.07
2018-08-22T22:47:24.219Z,21.08
2018-08-22T22:49:51.799Z,21.05
2018-08-22T22:52:23.317Z,21.02
2018-08-22T22:54:52.682Z,20.90
2018-08-22T22:57:20.237Z,20.87
2018-08-22T22:59:47.859Z,20.90
2018-08-22T23:02:15.839Z,20.92
2018-08-22T23:04:44.814Z,20.76
2018-08-22T23:07:19.522Z,20.74
2018-08-22T23:09:48.595Z,20.73
2018-08-22T23:12:16.321Z,20.72
2018-08-22T23:14:45.003Z,20.70
2018-08-22T23:17:12.530Z,20.77
2018-08-22T23:19:40.098Z,20.71
2018-08-22T23:22:07.642Z,20.63
2018-08-22T23:24:35.163Z,20.60
2018-08-22T23:27:02.708Z,20.69
2018-08-22T23:29:30.315Z,20.81
2018-08-22T23:31:57.857Z,20.83
2018-08-22T23:34:25.487Z,20.90
2018-08-22T23:36:53.083Z,20.97
2018-08-22T23:39:22.129Z,21.06
2018-08-22T23:41:49.658Z,21.12
2018-08-22T23:44:17.194Z,21.02
2018-08-22T23:46:44.728Z,21.05
2018-08-22T23:49:12.303Z,21.22
2018-08-22T23:51:39.854Z,21.04
2018-08-22T23:54:07.382Z,21.13
2018-08-22T23:56:34.944Z,21.11
2018-08-22T23:59:02.918Z,21.05
